Time;durP1;ratioP1;P1;durP2;ratioP2;P2;SDS_P1;SDS_P2;PMS_P1;PMS_P2;Temp;Humidity;BMP_temperature;BMP_pressure;BME280_temperature;BME280_humidity;BME280_pressure;Samples;Min_cycle;Max_cycle;Signal;HPM_P1;HPM_P2
2022/08/29 00:00:18;;;;;;;6.13;3.15;;;;;;;;;;5055201;28;20035;-73
2022/08/29 00:02:49;;;;;;;13.13;3.90;;;;;;;;;;5073041;28;20029;-73
2022/08/29 00:05:15;;;;;;;10.30;3.65;;;;;;;;;;5072543;28;20025;-73
2022/08/29 00:07:41;;;;;;;14.52;3.83;;;;;;;;;;5072150;28;20116;-73
2022/08/29 00:10:08;;;;;;;14.40;4.15;;;;;;;;;;5073827;28;20735;-74
2022/08/29 00:12:34;;;;;;;9.52;3.40;;;;;;;;;;5056705;28;20486;-72
2022/08/29 00:15:00;;;;;;;7.72;3.50;;;;;;;;;;5075659;28;20086;-73
2022/08/29 00:17:26;;;;;;;11.73;3.85;;;;;;;;;;5075345;28;20028;-73
2022/08/29 00:19:52;;;;;;;12.20;3.78;;;;;;;;;;5075523;28;20039;-71
2022/08/29 00:22:18;;;;;;;13.40;4.00;;;;;;;;;;5074620;28;20024;-75
2022/08/29 00:24:44;;;;;;;8.70;3.55;;;;;;;;;;5074733;28;20017;-75
2022/08/29 00:27:10;;;;;;;9.18;3.90;;;;;;;;;;5074358;28;20569;-73
2022/08/29 00:29:36;;;;;;;13.75;3.60;;;;;;;;;;5074480;28;20154;-74
2022/08/29 00:32:02;;;;;;;6.78;3.42;;;;;;;;;;5074994;28;20070;-75
2022/08/29 00:34:28;;;;;;;13.05;3.72;;;;;;;;;;5073992;28;20025;-73
2022/08/29 00:36:54;;;;;;;9.40;3.67;;;;;;;;;;5073360;28;20028;-73
2022/08/29 00:39:20;;;;;;;10.18;3.35;;;;;;;;;;5071757;28;20016;-72
2022/08/29 00:41:46;;;;;;;13.20;4.03;;;;;;;;;;5072149;28;20035;-73
2022/08/29 00:44:12;;;;;;;8.10;3.67;;;;;;;;;;5054030;28;20021;-74
2022/08/29 00:46:38;;;;;;;8.57;3.70;;;;;;;;;;5071990;28;20024;-75
2022/08/29 00:49:07;;;;;;;7.60;3.70;;;;;;;;;;5053658;28;20060;-73
2022/08/29 00:51:33;;;;;;;8.18;3.53;;;;;;;;;;5071902;28;20394;-73
2022/08/29 00:54:01;;;;;;;10.35;3.78;;;;;;;;;;5071734;28;20070;-72
2022/08/29 00:56:28;;;;;;;7.65;3.60;;;;;;;;;;5072190;28;20020;-72
2022/08/29 00:59:05;;;;;;;10.68;3.40;;;;;;;;;;5071508;28;20028;-74
2022/08/29 01:01:31;;;;;;;9.48;3.30;;;;;;;;;;5071911;28;20510;-74
2022/08/29 01:03:57;;;;;;;8.48;3.10;;;;;;;;;;5071626;28;20406;-73
2022/08/29 01:06:25;;;;;;;10.13;3.65;;;;;;;;;;5089942;22;20828;-69
2022/08/29 01:08:52;;;;;;;9.20;3.10;;;;;;;;;;5050869;28;20079;-70
2022/08/29 01:14:04;;;;;;;8.60;3.72;;;;;;;;;;5032990;28;20047;-71
2022/08/29 01:16:31;;;;;;;8.48;3.53;;;;;;;;;;5043762;28;20029;-70
2022/08/29 01:19:00;;;;;;;8.55;3.22;;;;;;;;;;5045515;28;20108;-70
2022/08/29 01:21:35;;;;;;;9.43;4.25;;;;;;;;;;5051804;28;20032;-71
2022/08/29 01:24:27;;;;;;;12.48;4.07;;;;;;;;;;5051685;28;20025;-71
2022/08/29 01:26:53;;;;;;;11.68;3.47;;;;;;;;;;5028146;28;20041;-71
2022/08/29 01:29:19;;;;;;;10.35;3.35;;;;;;;;;;5051308;28;20047;-71
2022/08/29 01:31:46;;;;;;;9.93;4.18;;;;;;;;;;5051456;28;20502;-72
2022/08/29 01:34:14;;;;;;;10.57;3.70;;;;;;;;;;5051331;28;20025;-69
2022/08/29 01:36:47;;;;;;;10.43;3.35;;;;;;;;;;5051499;28;20028;-69
2022/08/29 01:39:13;;;;;;;10.27;3.55;;;;;;;;;;5051415;28;20033;-69
2022/08/29 01:41:41;;;;;;;8.15;3.45;;;;;;;;;;5051331;28;20025;-69
2022/08/29 01:44:13;;;;;;;10.70;3.35;;;;;;;;;;5051725;28;20029;-70
2022/08/29 01:46:39;;;;;;;9.60;3.83;;;;;;;;;;5051487;28;20108;-69
2022/08/29 01:49:06;;;;;;;8.18;3.75;;;;;;;;;;5050102;28;20593;-70
2022/08/29 01:51:32;;;;;;;11.85;3.65;;;;;;;;;;5051277;28;20032;-69
2022/08/29 01:53:58;;;;;;;9.07;3.72;;;;;;;;;;5049668;28;20402;-69
2022/08/29 01:56:26;;;;;;;10.35;3.92;;;;;;;;;;5051434;28;20021;-70
2022/08/29 01:58:53;;;;;;;14.20;3.58;;;;;;;;;;5050974;28;20029;-70
2022/08/29 02:01:24;;;;;;;9.95;3.75;;;;;;;;;;5037644;28;20057;-70
2022/08/29 02:03:50;;;;;;;19.63;4.22;;;;;;;;;;5051425;28;20455;-70
2022/08/29 02:06:16;;;;;;;9.57;3.97;;;;;;;;;;5050881;28;20036;-70
2022/08/29 02:08:42;;;;;;;11.57;3.85;;;;;;;;;;5049573;28;20379;-71
2022/08/29 02:11:10;;;;;;;9.35;4.03;;;;;;;;;;5051119;28;20479;-71
2022/08/29 02:13:40;;;;;;;9.18;4.22;;;;;;;;;;5049448;28;20063;-70
2022/08/29 02:16:06;;;;;;;11.20;4.10;;;;;;;;;;5049607;28;20696;-71
2022/08/29 02:18:32;;;;;;;7.68;3.85;;;;;;;;;;5052052;28;20028;-71
2022/08/29 02:20:59;;;;;;;8.13;4.13;;;;;;;;;;5050773;28;20061;-69
2022/08/29 02:23:25;;;;;;;12.27;4.30;;;;;;;;;;5050948;28;20025;-69
2022/08/29 02:25:52;;;;;;;10.82;4.03;;;;;;;;;;5050869;28;20086;-69
2022/08/29 02:28:19;;;;;;;10.60;3.90;;;;;;;;;;5050435;28;20055;-69
2022/08/29 02:30:50;;;;;;;10.45;4.15;;;;;;;;;;5054161;28;20070;-70
2022/08/29 02:33:17;;;;;;;12.00;4.13;;;;;;;;;;5053395;28;20032;-70
2022/08/29 02:35:43;;;;;;;6.97;3.90;;;;;;;;;;5054475;28;20483;-71
2022/08/29 02:38:09;;;;;;;12.32;4.20;;;;;;;;;;5054251;28;20024;-70
2022/08/29 02:40:35;;;;;;;10.55;4.32;;;;;;;;;;5054675;28;20032;-70
2022/08/29 02:43:02;;;;;;;15.07;4.93;;;;;;;;;;5054645;28;20028;-71
2022/08/29 02:45:28;;;;;;;18.92;5.20;;;;;;;;;;5054619;28;20099;-71
2022/08/29 02:47:54;;;;;;;9.52;3.78;;;;;;;;;;5054051;28;20025;-71
2022/08/29 02:50:20;;;;;;;13.27;5.10;;;;;;;;;;5053119;28;20398;-70
2022/08/29 02:52:46;;;;;;;12.15;4.18;;;;;;;;;;5054358;28;20053;-70
2022/08/29 02:55:14;;;;;;;8.10;3.75;;;;;;;;;;5054289;28;20080;-70
2022/08/29 02:57:44;;;;;;;13.60;4.30;;;;;;;;;;5052315;28;20021;-70
2022/08/29 03:00:13;;;;;;;10.95;4.43;;;;;;;;;;5054288;28;20078;-70
2022/08/29 03:02:39;;;;;;;7.65;3.97;;;;;;;;;;5054035;28;20025;-70
2022/08/29 03:05:06;;;;;;;25.20;12.88;;;;;;;;;;5052300;28;20123;-70
2022/08/29 03:07:32;;;;;;;164.20;94.00;;;;;;;;;;5052112;28;20653;-69
2022/08/29 03:09:58;;;;;;;460.85;254.95;;;;;;;;;;5051112;28;20387;-71
2022/08/29 03:12:24;;;;;;;181.48;95.80;;;;;;;;;;5053283;28;20383;-71
2022/08/29 03:14:50;;;;;;;164.57;76.40;;;;;;;;;;5052658;28;20032;-71
2022/08/29 03:17:16;;;;;;;52.00;19.75;;;;;;;;;;5053590;28;20475;-70
2022/08/29 03:19:42;;;;;;;89.55;46.03;;;;;;;;;;5053798;28;20155;-70
2022/08/29 03:22:08;;;;;;;12.07;5.63;;;;;;;;;;5053946;28;20057;-69
2022/08/29 03:24:35;;;;;;;11.63;5.28;;;;;;;;;;5052228;28;20339;-69
2022/08/29 03:27:02;;;;;;;17.90;5.47;;;;;;;;;;5053679;28;20494;-70
2022/08/29 03:29:28;;;;;;;10.43;4.40;;;;;;;;;;5053093;28;20024;-70
2022/08/29 03:31:57;;;;;;;8.45;4.05;;;;;;;;;;5053689;28;20036;-70
2022/08/29 03:34:23;;;;;;;11.27;4.28;;;;;;;;;;5051982;28;20017;-70
2022/08/29 03:36:49;;;;;;;11.43;4.35;;;;;;;;;;5053327;28;20021;-70
2022/08/29 03:39:15;;;;;;;13.70;4.85;;;;;;;;;;5053137;28;20017;-70
2022/08/29 03:41:42;;;;;;;8.55;4.35;;;;;;;;;;5052179;28;20025;-70
2022/08/29 03:44:08;;;;;;;11.07;4.28;;;;;;;;;;5053324;28;20037;-71
2022/08/29 03:46:38;;;;;;;12.15;4.45;;;;;;;;;;5053416;28;20051;-70
2022/08/29 03:49:05;;;;;;;11.48;3.90;;;;;;;;;;5053009;28;20059;-70
2022/08/29 03:51:32;;;;;;;14.50;4.10;;;;;;;;;;5053274;28;20227;-70
2022/08/29 03:53:58;;;;;;;10.40;4.53;;;;;;;;;;5052882;28;20024;-70
2022/08/29 03:56:24;;;;;;;15.20;4.45;;;;;;;;;;5053245;28;20041;-70
2022/08/29 03:58:50;;;;;;;13.65;5.03;;;;;;;;;;5052805;28;20035;-70
2022/08/29 04:01:17;;;;;;;10.43;4.38;;;;;;;;;;5053066;28;20077;-70
2022/08/29 04:03:43;;;;;;;12.10;4.90;;;;;;;;;;5053057;28;20021;-71
2022/08/29 04:06:09;;;;;;;11.18;4.07;;;;;;;;;;5051196;28;20033;-70
2022/08/29 04:08:35;;;;;;;12.45;4.05;;;;;;;;;;5052748;28;20032;-70
2022/08/29 04:11:02;;;;;;;12.25;4.38;;;;;;;;;;5052855;28;20540;-70
2022/08/29 04:13:28;;;;;;;7.63;4.05;;;;;;;;;;5052613;28;20017;-70
2022/08/29 04:15:54;;;;;;;10.68;4.30;;;;;;;;;;5051326;28;20021;-70
2022/08/29 04:18:20;;;;;;;7.82;4.50;;;;;;;;;;5052513;28;20047;-70
2022/08/29 04:20:46;;;;;;;12.48;5.25;;;;;;;;;;5052666;28;20017;-70
2022/08/29 04:23:13;;;;;;;11.60;4.68;;;;;;;;;;5052622;28;20391;-70
2022/08/29 04:25:40;;;;;;;12.95;4.78;;;;;;;;;;5052515;28;20490;-70
2022/08/29 04:28:07;;;;;;;9.63;4.68;;;;;;;;;;5052328;28;20096;-71
2022/08/29 04:30:34;;;;;;;12.45;4.30;;;;;;;;;;5052313;28;20029;-71
2022/08/29 04:33:00;;;;;;;6.60;4.32;;;;;;;;;;5052237;28;20514;-71
2022/08/29 04:35:27;;;;;;;12.43;4.72;;;;;;;;;;5052419;28;20049;-70
2022/08/29 04:37:54;;;;;;;12.75;4.70;;;;;;;;;;5051851;28;20021;-71
2022/08/29 04:40:20;;;;;;;13.63;4.43;;;;;;;;;;5051139;28;20013;-71
2022/08/29 04:42:47;;;;;;;11.27;3.88;;;;;;;;;;5052173;28;20021;-71
2022/08/29 04:45:14;;;;;;;9.05;3.85;;;;;;;;;;5052266;28;20062;-71
2022/08/29 04:47:41;;;;;;;12.43;3.50;;;;;;;;;;5051566;28;20025;-71
2022/08/29 04:50:09;;;;;;;9.13;3.20;;;;;;;;;;5051056;28;20067;-71
2022/08/29 04:52:35;;;;;;;16.67;3.65;;;;;;;;;;5051323;28;20028;-70
2022/08/29 04:55:02;;;;;;;9.68;4.07;;;;;;;;;;5052031;28;20474;-71
2022/08/29 04:57:28;;;;;;;13.90;4.75;;;;;;;;;;5051410;28;20513;-72
2022/08/29 04:59:54;;;;;;;6.95;3.58;;;;;;;;;;5052080;28;20499;-71
2022/08/29 05:02:21;;;;;;;8.32;3.33;;;;;;;;;;5051430;28;20029;-71
2022/08/29 05:04:51;;;;;;;8.55;3.65;;;;;;;;;;5051804;28;20534;-71
2022/08/29 05:07:19;;;;;;;11.70;3.55;;;;;;;;;;5050939;28;20033;-70
2022/08/29 05:09:45;;;;;;;11.52;3.92;;;;;;;;;;5051937;28;20535;-70
2022/08/29 05:12:11;;;;;;;8.20;3.75;;;;;;;;;;5050308;28;20052;-71
2022/08/29 05:14:38;;;;;;;10.77;4.05;;;;;;;;;;5049428;28;20506;-71
2022/08/29 05:17:04;;;;;;;13.35;4.00;;;;;;;;;;5051220;28;20024;-71
2022/08/29 05:19:30;;;;;;;11.57;3.63;;;;;;;;;;5051328;28;20096;-71
2022/08/29 05:21:57;;;;;;;16.33;3.90;;;;;;;;;;5051557;28;20118;-71
2022/08/29 05:24:23;;;;;;;12.90;3.88;;;;;;;;;;5051022;28;20020;-71
2022/08/29 05:26:50;;;;;;;9.38;3.90;;;;;;;;;;5051186;28;20049;-70
2022/08/29 05:29:17;;;;;;;8.90;3.78;;;;;;;;;;5050685;28;20028;-71
2022/08/29 05:31:43;;;;;;;10.50;3.58;;;;;;;;;;5051213;28;20394;-71
2022/08/29 05:34:11;;;;;;;13.88;4.15;;;;;;;;;;5050943;28;20051;-71
2022/08/29 05:36:37;;;;;;;7.05;3.97;;;;;;;;;;5051356;28;20060;-72
2022/08/29 05:39:03;;;;;;;12.73;3.60;;;;;;;;;;5049551;28;20024;-72
2022/08/29 05:41:29;;;;;;;7.97;3.67;;;;;;;;;;5051131;28;20028;-72
2022/08/29 05:43:56;;;;;;;12.30;3.70;;;;;;;;;;5050642;28;20052;-72
2022/08/29 05:46:22;;;;;;;11.93;3.38;;;;;;;;;;5049386;28;20505;-72
2022/08/29 05:48:48;;;;;;;8.68;3.65;;;;;;;;;;5050526;28;20021;-71
2022/08/29 05:51:18;;;;;;;7.20;3.30;;;;;;;;;;5050639;28;20079;-71
2022/08/29 05:53:44;;;;;;;10.70;3.58;;;;;;;;;;5050905;28;20434;-71
2022/08/29 05:56:11;;;;;;;6.40;3.28;;;;;;;;;;5050386;28;20021;-72
2022/08/29 05:58:37;;;;;;;7.03;3.42;;;;;;;;;;5050367;28;20056;-72
2022/08/29 06:01:03;;;;;;;7.60;3.38;;;;;;;;;;5051099;28;20074;-71
2022/08/29 06:03:30;;;;;;;10.13;3.40;;;;;;;;;;5049673;28;20037;-72
2022/08/29 06:05:56;;;;;;;7.47;4.10;;;;;;;;;;5054367;28;20018;-72
2022/08/29 06:08:22;;;;;;;11.95;3.60;;;;;;;;;;5054839;28;20117;-71
2022/08/29 06:10:48;;;;;;;9.00;4.03;;;;;;;;;;5054751;28;20463;-73
2022/08/29 06:13:14;;;;;;;7.93;3.67;;;;;;;;;;5053377;28;20398;-72
2022/08/29 06:15:44;;;;;;;7.57;4.07;;;;;;;;;;5050430;28;20044;-71
2022/08/29 06:18:10;;;;;;;7.90;3.63;;;;;;;;;;5054493;28;20020;-73
2022/08/29 06:20:37;;;;;;;7.00;3.72;;;;;;;;;;5054466;28;20394;-71
2022/08/29 06:23:03;;;;;;;8.10;3.75;;;;;;;;;;5054447;28;20025;-71
2022/08/29 06:25:29;;;;;;;7.80;3.58;;;;;;;;;;5054503;28;20139;-71
2022/08/29 06:27:55;;;;;;;7.57;3.83;;;;;;;;;;5053912;28;20100;-71
2022/08/29 06:30:21;;;;;;;7.97;3.42;;;;;;;;;;5049529;28;20580;-72
2022/08/29 06:32:48;;;;;;;9.65;3.78;;;;;;;;;;5054704;28;20029;-71
2022/08/29 06:35:14;;;;;;;12.82;3.90;;;;;;;;;;5054596;28;20617;-71
2022/08/29 06:37:41;;;;;;;9.05;3.85;;;;;;;;;;5053841;28;20028;-72
2022/08/29 06:40:08;;;;;;;9.25;4.03;;;;;;;;;;5054376;28;20086;-70
2022/08/29 06:42:34;;;;;;;7.13;3.53;;;;;;;;;;5054273;28;20021;-71
2022/08/29 06:45:00;;;;;;;5.85;3.42;;;;;;;;;;5054495;28;20059;-72
2022/08/29 06:47:26;;;;;;;7.80;4.20;;;;;;;;;;5054657;28;20028;-72
2022/08/29 06:49:52;;;;;;;6.25;3.50;;;;;;;;;;5054950;28;20013;-72
2022/08/29 06:52:18;;;;;;;6.43;3.67;;;;;;;;;;5054308;28;20071;-72
2022/08/29 06:54:44;;;;;;;8.68;4.05;;;;;;;;;;5054211;28;20430;-73
2022/08/29 06:57:10;;;;;;;8.35;4.00;;;;;;;;;;5053990;28;20025;-72
2022/08/29 06:59:36;;;;;;;8.52;4.20;;;;;;;;;;5053712;28;20059;-72
2022/08/29 07:02:02;;;;;;;12.23;4.25;;;;;;;;;;5053338;28;20017;-73
2022/08/29 07:04:29;;;;;;;7.43;4.53;;;;;;;;;;5051854;28;20025;-72
2022/08/29 07:06:55;;;;;;;9.10;4.28;;;;;;;;;;5069114;22;20040;-71
2022/08/29 07:09:22;;;;;;;8.30;4.07;;;;;;;;;;5070294;28;20170;-72
2022/08/29 07:11:48;;;;;;;6.93;3.63;;;;;;;;;;5073267;28;20029;-70
2022/08/29 07:14:14;;;;;;;9.13;4.10;;;;;;;;;;5072220;28;20483;-70
2022/08/29 07:16:41;;;;;;;7.93;4.05;;;;;;;;;;5055434;28;20025;-72
2022/08/29 07:19:07;;;;;;;9.43;4.65;;;;;;;;;;5060862;28;20028;-71
2022/08/29 07:21:33;;;;;;;6.38;3.83;;;;;;;;;;5053620;28;20045;-71
2022/08/29 07:23:59;;;;;;;7.63;3.75;;;;;;;;;;5053894;28;20025;-72
2022/08/29 07:26:28;;;;;;;7.90;4.38;;;;;;;;;;5066664;28;20074;-72
2022/08/29 07:28:55;;;;;;;6.35;4.25;;;;;;;;;;5059926;28;20020;-73
2022/08/29 07:31:21;;;;;;;8.43;3.92;;;;;;;;;;5053556;28;20104;-72
2022/08/29 07:33:47;;;;;;;10.13;3.80;;;;;;;;;;5053582;28;20025;-70
2022/08/29 07:36:13;;;;;;;7.82;4.10;;;;;;;;;;5035675;28;20049;-72
2022/08/29 07:38:40;;;;;;;12.23;4.35;;;;;;;;;;5060352;28;20017;-72
2022/08/29 07:41:07;;;;;;;9.00;4.28;;;;;;;;;;5051363;28;20024;-71
2022/08/29 07:43:34;;;;;;;10.30;4.55;;;;;;;;;;5062513;28;20372;-72
2022/08/29 07:46:05;;;;;;;5.20;3.53;;;;;;;;;;5047556;28;20090;-70
2022/08/29 07:48:31;;;;;;;8.05;4.32;;;;;;;;;;5053118;28;20028;-70
2022/08/29 07:50:57;;;;;;;8.43;3.83;;;;;;;;;;5053366;28;20469;-71
2022/08/29 07:53:23;;;;;;;8.27;4.50;;;;;;;;;;5053703;28;20041;-70
2022/08/29 07:55:49;;;;;;;11.23;4.18;;;;;;;;;;5054099;28;20099;-73
2022/08/29 07:58:15;;;;;;;6.95;3.60;;;;;;;;;;5053399;28;20372;-71
2022/08/29 08:00:41;;;;;;;8.57;4.40;;;;;;;;;;5058561;28;20025;-70
2022/08/29 08:03:07;;;;;;;9.88;3.97;;;;;;;;;;5053831;28;20497;-71
2022/08/29 08:05:33;;;;;;;8.25;4.57;;;;;;;;;;5053079;28;20056;-73
2022/08/29 08:07:59;;;;;;;10.48;4.32;;;;;;;;;;5054832;28;20415;-71
2022/08/29 08:10:26;;;;;;;10.20;4.22;;;;;;;;;;5060434;28;20033;-72
2022/08/29 08:12:52;;;;;;;6.90;3.83;;;;;;;;;;5053499;28;20043;-71
2022/08/29 08:15:20;;;;;;;16.42;4.47;;;;;;;;;;5053900;28;20020;-70
2022/08/29 08:17:46;;;;;;;8.95;4.50;;;;;;;;;;5054095;28;20021;-70
2022/08/29 08:20:12;;;;;;;9.93;4.35;;;;;;;;;;5058708;28;20524;-71
2022/08/29 08:22:38;;;;;;;7.85;4.05;;;;;;;;;;5034871;28;20016;-71
2022/08/29 08:25:05;;;;;;;10.75;4.03;;;;;;;;;;5034898;28;20021;-71
2022/08/29 08:27:31;;;;;;;8.95;4.47;;;;;;;;;;5051569;28;20117;-70
2022/08/29 08:29:57;;;;;;;7.93;4.07;;;;;;;;;;5058056;28;20036;-71
2022/08/29 08:32:24;;;;;;;8.32;4.45;;;;;;;;;;5052664;28;20029;-72
2022/08/29 08:34:50;;;;;;;10.15;4.15;;;;;;;;;;5052322;28;20059;-71
2022/08/29 08:37:16;;;;;;;11.15;4.07;;;;;;;;;;5052024;28;20101;-71
2022/08/29 08:39:43;;;;;;;9.43;4.15;;;;;;;;;;5052366;28;20075;-73
2022/08/29 08:42:13;;;;;;;8.63;4.30;;;;;;;;;;5052519;28;20060;-71
2022/08/29 08:44:47;;;;;;;9.00;4.15;;;;;;;;;;5058676;28;20020;-71
2022/08/29 08:47:23;;;;;;;6.93;4.05;;;;;;;;;;5039982;28;20055;-73
2022/08/29 08:49:53;;;;;;;9.20;4.90;;;;;;;;;;5035386;28;20086;-71
2022/08/29 08:52:22;;;;;;;12.82;4.30;;;;;;;;;;5052502;28;20039;-73
2022/08/29 08:55:11;;;;;;;9.48;4.85;;;;;;;;;;5052181;28;20435;-72
2022/08/29 08:57:40;;;;;;;12.25;4.25;;;;;;;;;;5051225;28;20025;-72
2022/08/29 09:00:10;;;;;;;9.00;4.53;;;;;;;;;;5057160;28;20013;-69
2022/08/29 09:02:44;;;;;;;9.77;4.32;;;;;;;;;;5051969;28;20092;-71
2022/08/29 09:05:28;;;;;;;10.00;3.83;;;;;;;;;;5052261;28;20037;-71
2022/08/29 09:08:09;;;;;;;11.57;4.63;;;;;;;;;;5052134;28;20017;-70
2022/08/29 09:10:38;;;;;;;9.20;4.22;;;;;;;;;;5064208;28;20051;-69
2022/08/29 09:13:13;;;;;;;7.78;4.30;;;;;;;;;;5070548;28;20047;-71
2022/08/29 09:15:41;;;;;;;10.23;4.35;;;;;;;;;;5058860;28;20095;-71
2022/08/29 09:18:24;;;;;;;11.40;3.83;;;;;;;;;;5050730;28;20486;-71
2022/08/29 09:20:50;;;;;;;9.50;4.43;;;;;;;;;;5047158;28;20031;-71
2022/08/29 09:23:26;;;;;;;9.20;4.07;;;;;;;;;;5051898;28;20031;-71
2022/08/29 09:25:52;;;;;;;15.55;3.88;;;;;;;;;;5051573;28;20025;-70
2022/08/29 09:28:18;;;;;;;9.75;3.97;;;;;;;;;;5051818;28;20106;-70
2022/08/29 09:31:04;;;;;;;8.88;4.35;;;;;;;;;;5056400;28;20029;-71
2022/08/29 09:33:40;;;;;;;10.00;4.30;;;;;;;;;;5051951;28;20025;-71
2022/08/29 09:36:08;;;;;;;8.25;4.30;;;;;;;;;;5051686;28;20032;-72
2022/08/29 09:38:34;;;;;;;9.63;4.55;;;;;;;;;;5051595;28;20023;-71
2022/08/29 09:41:02;;;;;;;9.13;4.32;;;;;;;;;;5052043;28;20025;-69
2022/08/29 09:43:33;;;;;;;11.70;4.28;;;;;;;;;;5034518;28;20086;-70
2022/08/29 09:46:07;;;;;;;14.63;4.78;;;;;;;;;;5051381;28;20505;-70
2022/08/29 09:48:34;;;;;;;10.68;4.45;;;;;;;;;;5051268;28;20025;-70
2022/08/29 09:51:27;;;;;;;10.60;3.45;;;;;;;;;;5033137;28;20116;-68
2022/08/29 09:53:54;;;;;;;12.45;4.95;;;;;;;;;;5048154;28;20510;-71
2022/08/29 09:56:25;;;;;;;6.75;3.85;;;;;;;;;;5057874;28;20087;-72
2022/08/29 09:59:00;;;;;;;9.13;4.20;;;;;;;;;;5045064;28;20017;-71
2022/08/29 10:01:27;;;;;;;8.85;4.20;;;;;;;;;;5051992;28;20024;-72
2022/08/29 10:03:55;;;;;;;15.90;4.50;;;;;;;;;;5051488;28;20509;-70
2022/08/29 10:06:23;;;;;;;8.20;4.10;;;;;;;;;;5052382;28;20514;-72
2022/08/29 10:09:15;;;;;;;8.70;4.28;;;;;;;;;;5061144;28;20035;-72
2022/08/29 10:11:45;;;;;;;10.90;4.55;;;;;;;;;;5048065;28;20024;-72
2022/08/29 10:14:31;;;;;;;8.05;4.13;;;;;;;;;;5044868;28;20050;-72
2022/08/29 10:19:47;;;;;;;8.57;4.03;;;;;;;;;;5070481;28;20040;-72
2022/08/29 10:22:16;;;;;;;13.18;4.53;;;;;;;;;;5064066;28;20020;-70
2022/08/29 10:24:53;;;;;;;7.28;3.72;;;;;;;;;;5050916;28;20367;-70
2022/08/29 10:27:22;;;;;;;8.70;4.18;;;;;;;;;;5050460;28;20044;-72
2022/08/29 10:30:07;;;;;;;9.68;4.00;;;;;;;;;;5056181;28;20025;-71
2022/08/29 10:32:45;;;;;;;13.80;4.22;;;;;;;;;;5032739;28;20247;-68
2022/08/29 10:35:29;;;;;;;10.18;4.22;;;;;;;;;;5051083;28;20102;-71
2022/08/29 10:38:14;;;;;;;10.55;4.05;;;;;;;;;;5050220;28;20463;-72
2022/08/29 10:40:49;;;;;;;9.13;3.70;;;;;;;;;;5050836;28;20442;-71
2022/08/29 10:43:18;;;;;;;11.18;4.05;;;;;;;;;;5070570;28;20056;-72
2022/08/29 10:45:47;;;;;;;9.88;3.92;;;;;;;;;;5060134;28;20020;-71
2022/08/29 10:48:24;;;;;;;8.10;3.95;;;;;;;;;;5050575;28;20116;-71
2022/08/29 10:50:57;;;;;;;13.27;5.07;;;;;;;;;;5062018;28;20036;-69
2022/08/29 10:53:23;;;;;;;6.85;3.83;;;;;;;;;;5034765;28;20067;-72
2022/08/29 10:55:53;;;;;;;11.32;3.80;;;;;;;;;;5052390;28;20052;-71
2022/08/29 10:58:25;;;;;;;8.48;3.47;;;;;;;;;;5053022;28;20455;-72
2022/08/29 11:00:51;;;;;;;;;;;;;;;;;;5056812;28;20017;-70
2022/08/29 11:03:23;;;;;;;8.32;3.72;;;;;;;;;;5034318;28;19913;-70
2022/08/29 11:05:53;;;;;;;8.57;3.72;;;;;;;;;;5034505;28;20029;-71
2022/08/29 11:08:22;;;;;;;11.20;3.85;;;;;;;;;;5060476;28;20064;-71
2022/08/29 11:10:51;;;;;;;10.77;4.20;;;;;;;;;;5060986;28;20095;-71
2022/08/29 11:13:17;;;;;;;6.50;3.65;;;;;;;;;;5053787;28;20109;-72
2022/08/29 11:15:45;;;;;;;6.93;3.65;;;;;;;;;;5053207;28;20096;-72
2022/08/29 11:18:30;;;;;;;10.90;4.25;;;;;;;;;;5059374;28;20023;-70
2022/08/29 11:21:00;;;;;;;9.52;3.65;;;;;;;;;;5054229;28;20051;-71
2022/08/29 11:23:43;;;;;;;9.10;4.10;;;;;;;;;;5057418;28;20054;-72
2022/08/29 11:26:12;;;;;;;7.85;3.35;;;;;;;;;;5058049;28;20017;-72
2022/08/29 11:28:45;;;;;;;7.22;3.80;;;;;;;;;;5061360;28;20036;-71
2022/08/29 11:31:17;;;;;;;7.20;3.35;;;;;;;;;;5058839;28;20021;-71
2022/08/29 11:33:52;;;;;;;9.27;3.88;;;;;;;;;;5039783;28;20369;-70
2022/08/29 11:36:37;;;;;;;9.68;3.67;;;;;;;;;;5057581;28;20034;-72
2022/08/29 11:39:21;;;;;;;7.43;3.90;;;;;;;;;;5053247;28;20109;-72
2022/08/29 11:41:49;;;;;;;9.82;3.45;;;;;;;;;;5054211;28;20124;-71
2022/08/29 11:44:38;;;;;;;5.88;2.95;;;;;;;;;;5054797;28;20025;-71
2022/08/29 11:47:43;;;;;;;7.93;3.72;;;;;;;;;;5053549;28;20095;-71
2022/08/29 11:50:20;;;;;;;6.35;2.90;;;;;;;;;;4992669;28;20109;-71
2022/08/29 11:53:04;;;;;;;6.57;3.40;;;;;;;;;;4975832;28;20201;-70
2022/08/29 11:55:31;;;;;;;6.30;3.03;;;;;;;;;;5020665;28;20434;-71
2022/08/29 11:57:58;;;;;;;6.75;2.92;;;;;;;;;;5052571;28;20048;-72
2022/08/29 12:00:31;;;;;;;7.75;2.95;;;;;;;;;;5039949;28;20106;-71
2022/08/29 12:02:57;;;;;;;4.75;2.58;;;;;;;;;;5057643;28;20032;-69
2022/08/29 12:05:29;;;;;;;7.45;3.05;;;;;;;;;;5042468;28;20525;-72
2022/08/29 12:07:58;;;;;;;7.18;2.75;;;;;;;;;;5047230;28;20036;-72
2022/08/29 12:10:24;;;;;;;9.73;3.20;;;;;;;;;;5058891;28;20490;-72
2022/08/29 12:12:57;;;;;;;4.90;2.85;;;;;;;;;;5050933;28;20471;-71
2022/08/29 12:15:26;;;;;;;8.63;3.05;;;;;;;;;;5032868;28;20025;-73
2022/08/29 12:17:56;;;;;;;4.80;2.53;;;;;;;;;;5050261;28;20067;-71
2022/08/29 12:20:34;;;;;;;9.75;3.10;;;;;;;;;;5056711;28;20104;-70
2022/08/29 12:23:02;;;;;;;5.63;2.95;;;;;;;;;;5051345;28;20395;-71
2022/08/29 12:25:28;;;;;;;6.25;2.25;;;;;;;;;;5051452;28;20473;-71
2022/08/29 12:27:59;;;;;;;6.55;3.28;;;;;;;;;;5052006;28;20040;-70
2022/08/29 12:30:25;;;;;;;8.73;2.95;;;;;;;;;;5057492;28;20166;-72
2022/08/29 12:32:57;;;;;;;7.47;3.40;;;;;;;;;;5034259;28;20122;-72
2022/08/29 12:35:23;;;;;;;6.43;3.05;;;;;;;;;;5052334;28;20622;-71
2022/08/29 12:38:02;;;;;;;4.88;2.58;;;;;;;;;;5033891;28;20021;-71
2022/08/29 12:41:00;;;;;;;7.43;3.03;;;;;;;;;;5052044;28;20028;-71
2022/08/29 12:43:43;;;;;;;8.52;3.00;;;;;;;;;;5017076;28;20387;-72
2022/08/29 12:46:12;;;;;;;6.25;2.80;;;;;;;;;;5052063;28;20486;-72
2022/08/29 12:48:41;;;;;;;4.65;2.40;;;;;;;;;;5052401;28;20033;-68
2022/08/29 12:51:08;;;;;;;10.20;3.03;;;;;;;;;;5052067;28;20104;-70
2022/08/29 12:53:35;;;;;;;5.32;2.45;;;;;;;;;;5052185;28;20036;-71
2022/08/29 12:56:04;;;;;;;7.70;3.22;;;;;;;;;;5051621;28;20021;-70
2022/08/29 12:58:40;;;;;;;5.63;2.80;;;;;;;;;;5035697;28;20017;-69
2022/08/29 13:01:10;;;;;;;7.07;2.95;;;;;;;;;;5053255;28;20036;-70
2022/08/29 13:03:36;;;;;;;5.05;3.38;;;;;;;;;;5051695;28;20482;-70
2022/08/29 13:06:03;;;;;;;6.13;2.97;;;;;;;;;;5051873;28;20021;-69
2022/08/29 13:08:32;;;;;;;5.47;2.90;;;;;;;;;;5057958;28;20168;-71
2022/08/29 13:11:18;;;;;;;5.68;3.20;;;;;;;;;;5051989;28;20021;-71
2022/08/29 13:13:44;;;;;;;8.35;2.92;;;;;;;;;;5051200;28;20020;-72
2022/08/29 13:16:25;;;;;;;7.68;2.97;;;;;;;;;;5033713;28;20072;-71
2022/08/29 13:18:51;;;;;;;9.25;3.28;;;;;;;;;;5038745;28;20123;-70
2022/08/29 13:21:24;;;;;;;8.40;2.92;;;;;;;;;;5051521;28;20017;-71
2022/08/29 13:23:58;;;;;;;4.78;2.90;;;;;;;;;;5051489;28;20025;-69
2022/08/29 13:26:31;;;;;;;3.28;2.30;;;;;;;;;;5051258;28;20418;-71
2022/08/29 13:29:17;;;;;;;6.57;3.30;;;;;;;;;;5056167;28;20111;-69
2022/08/29 13:31:43;;;;;;;6.93;2.80;;;;;;;;;;5040848;28;20037;-71
2022/08/29 13:34:09;;;;;;;7.68;3.08;;;;;;;;;;5051007;28;20029;-71
2022/08/29 13:36:38;;;;;;;7.38;3.05;;;;;;;;;;5051135;28;20079;-71
2022/08/29 13:39:13;;;;;;;7.53;3.10;;;;;;;;;;5064783;28;20041;-70
2022/08/29 13:41:39;;;;;;;5.28;2.70;;;;;;;;;;5033407;28;20017;-70
2022/08/29 13:44:06;;;;;;;7.03;2.92;;;;;;;;;;5051995;28;20060;-71
2022/08/29 13:46:32;;;;;;;7.53;2.75;;;;;;;;;;5033303;28;20031;-70
2022/08/29 13:49:03;;;;;;;6.80;3.15;;;;;;;;;;5050906;28;20029;-71
2022/08/29 13:51:29;;;;;;;12.57;3.25;;;;;;;;;;5051145;28;20025;-70
2022/08/29 13:53:55;;;;;;;4.85;2.88;;;;;;;;;;5035892;28;20055;-71
2022/08/29 13:56:24;;;;;;;7.32;2.58;;;;;;;;;;5067012;28;20025;-69
2022/08/29 13:58:51;;;;;;;6.35;2.88;;;;;;;;;;5067861;28;20025;-69
2022/08/29 14:01:21;;;;;;;7.95;2.65;;;;;;;;;;5051122;28;20113;-73
2022/08/29 14:03:47;;;;;;;5.72;3.05;;;;;;;;;;5054391;28;20025;-69
2022/08/29 14:06:15;;;;;;;7.63;2.60;;;;;;;;;;5050799;28;20040;-71
2022/08/29 14:08:41;;;;;;;6.32;2.65;;;;;;;;;;5054991;28;20036;-73
2022/08/29 14:11:07;;;;;;;4.85;2.58;;;;;;;;;;5050900;28;20017;-70
2022/08/29 14:13:33;;;;;;;6.28;2.90;;;;;;;;;;5050570;28;20376;-70
2022/08/29 14:15:59;;;;;;;4.85;2.35;;;;;;;;;;5049970;28;20021;-70
2022/08/29 14:18:25;;;;;;;6.22;2.72;;;;;;;;;;5052303;28;20486;-71
2022/08/29 14:20:51;;;;;;;5.63;2.47;;;;;;;;;;5056941;28;20410;-69
2022/08/29 14:23:17;;;;;;;7.72;2.95;;;;;;;;;;5061836;28;20100;-71
2022/08/29 14:25:43;;;;;;;2.97;2.20;;;;;;;;;;5052127;28;20029;-70
2022/08/29 14:28:09;;;;;;;5.72;2.90;;;;;;;;;;5054106;28;20498;-70
2022/08/29 14:30:35;;;;;;;8.25;2.90;;;;;;;;;;5059400;28;20048;-72
2022/08/29 14:33:01;;;;;;;4.97;2.45;;;;;;;;;;5054541;28;20028;-71
2022/08/29 14:35:27;;;;;;;5.30;2.45;;;;;;;;;;5054660;28;20390;-71
2022/08/29 14:37:54;;;;;;;6.00;2.67;;;;;;;;;;5054605;28;20020;-73
2022/08/29 14:40:20;;;;;;;8.15;2.60;;;;;;;;;;5054655;28;20024;-72
2022/08/29 14:42:46;;;;;;;5.55;2.45;;;;;;;;;;5054258;28;20522;-71
2022/08/29 14:45:13;;;;;;;6.15;2.55;;;;;;;;;;5054696;28;20108;-70
2022/08/29 14:47:39;;;;;;;5.15;2.40;;;;;;;;;;5054060;28;20018;-72
2022/08/29 14:50:07;;;;;;;5.15;2.40;;;;;;;;;;5071879;28;20056;-71
2022/08/29 14:52:33;;;;;;;5.15;2.65;;;;;;;;;;5070816;28;20020;-70